»·PEaware :: DAL171 KDEN-KMTJ

DAL171 :: KDEN-KMTJ

FLIGHT INFORMATION

Flight Status: Arrived
Operator:
Delta Air Lines
More flights by this operator :: More flights under this callsign
Pilot: Tim M. (868)
Aircraft: BOEING 737-700
(B737)
More flights by this aircraft type
Origin: KDEN Denver Intl
United States
Destination: KMTJ Montrose Regl
United States
More flights between these airports :: More routes between these airports
Route: BAYLR6 TEHRU
File this flight plan on PilotEdge
Remarks:
Altitude:
(Current/Filed)
32,000ft
Speed:
(Current/Filed)
447kts
Departed: 22-Aug-20 01:54 PM
Arrived: 22-Aug-20 02:29 PM
Distance/Time
Traveled:
171nm/0:34
Distance/Time
To Go:
Arrived

Flight Plot

Page will automatically refresh every two minutes.

Flight plan parsing failed; only flown route is shown


Map Options




Map Legend


Flown Route
Filed Route
Departure Airport
Arrival Airport
Navaid (VOR, NDB)
Fix

Horizontal Profiles

Position Reports

Time Latitude Longitude Heading Altitude Ground
Speed
22-Aug-20 13:22 39.858140 -104.668736 0 5439ft 0kts
22-Aug-20 13:23 39.858140 -104.668736 0 5439ft 0kts
22-Aug-20 13:24 39.858140 -104.668736 0 5439ft 0kts
22-Aug-20 13:25 39.858140 -104.668736 0 5439ft 0kts
22-Aug-20 13:26 39.858140 -104.668736 0 5439ft 0kts
22-Aug-20 13:27 39.858140 -104.668736 0 5439ft 0kts
22-Aug-20 13:28 39.858140 -104.668736 0 5439ft 0kts
22-Aug-20 13:28 39.858140 -104.668736 0 5439ft 0kts
22-Aug-20 13:29 39.858140 -104.668736 0 5439ft 0kts
22-Aug-20 13:31 39.858140 -104.668736 0 5439ft 0kts
22-Aug-20 13:32 39.858140 -104.668736 0 5439ft 0kts
22-Aug-20 13:32 39.858140 -104.668736 0 5439ft 0kts
22-Aug-20 13:33 39.858140 -104.668736 0 5439ft 0kts
22-Aug-20 13:34 39.858140 -104.668736 0 5439ft 0kts
22-Aug-20 13:35 39.858140 -104.668736 0 5439ft 0kts
22-Aug-20 13:36 39.858140 -104.668736 0 5439ft 0kts
22-Aug-20 13:37 39.858140 -104.668736 0 5439ft 0kts
22-Aug-20 13:38 39.858140 -104.668736 0 5439ft 0kts
22-Aug-20 13:39 39.858140 -104.668736 0 5439ft 0kts
22-Aug-20 13:40 39.858140 -104.668736 0 5439ft 0kts
22-Aug-20 13:41 39.857870 -104.668737 359 5439ft 2kts
22-Aug-20 13:42 39.857235 -104.668735 359 5439ft 2kts
22-Aug-20 13:43 39.856596 -104.668733 359 5439ft 2kts
22-Aug-20 13:44 39.856295 -104.668732 359 5439ft 0kts
22-Aug-20 13:45 39.856310 -104.668732 359 5439ft 1kts
22-Aug-20 13:46 39.856656 -104.671624 270 5439ft 12kts
22-Aug-20 13:47 39.856692 -104.675979 269 5439ft 11kts
22-Aug-20 13:48 39.856727 -104.679840 269 5439ft 10kts
22-Aug-20 13:49 39.856899 -104.683774 271 5439ft 10kts
22-Aug-20 13:50 39.859483 -104.685113 359 5439ft 12kts
22-Aug-20 13:51 39.862746 -104.685070 359 5439ft 11kts
22-Aug-20 13:52 39.864871 -104.687183 4 5439ft 15kts
22-Aug-20 13:53 39.891981 -104.686669 1 5832ft 168kts
22-Aug-20 13:54 39.909651 -104.725910 239 8114ft 197kts
22-Aug-20 13:55 39.862851 -104.789160 226 9439ft 285kts
22-Aug-20 13:56 39.801534 -104.869671 226 10026ft 340kts
22-Aug-20 13:57 39.758413 -104.978667 256 11573ft 345kts
22-Aug-20 13:58 39.725552 -105.098044 247 15046ft 361kts
22-Aug-20 13:59 39.684917 -105.220660 248 18456ft 376kts
22-Aug-20 14:00 39.642993 -105.347911 248 21574ft 392kts
22-Aug-20 14:01 39.599593 -105.479392 248 23507ft 404kts
22-Aug-20 14:02 39.555201 -105.612703 248 23650ft 403kts
22-Aug-20 14:03 39.516711 -105.749003 252 23845ft 407kts
22-Aug-20 14:04 39.479040 -105.887311 251 26403ft 416kts
22-Aug-20 14:05 39.438927 -106.030347 250 28534ft 428kts
22-Aug-20 14:06 39.397743 -106.176301 250 30544ft 432kts
22-Aug-20 14:07 39.356436 -106.322192 249 32525ft 434kts
22-Aug-20 14:08 39.315334 -106.468807 249 32569ft 431kts
22-Aug-20 14:09 39.273684 -106.614154 249 32508ft 431kts
22-Aug-20 14:10 39.222421 -106.753115 234 32415ft 431kts
22-Aug-20 14:11 39.148127 -106.874842 231 32364ft 432kts
22-Aug-20 14:12 39.073356 -106.995236 231 32367ft 416kts
22-Aug-20 14:13 39.006860 -107.102715 232 32377ft 359kts
22-Aug-20 14:14 38.945595 -107.201781 231 30010ft 375kts
22-Aug-20 14:15 38.876498 -107.312633 232 26203ft 402kts
22-Aug-20 14:16 38.807868 -107.422285 232 23709ft 389kts
22-Aug-20 14:17 38.740981 -107.528788 232 21287ft 376kts
22-Aug-20 14:18 38.676144 -107.632274 231 18366ft 366kts
22-Aug-20 14:19 38.615408 -107.728215 231 16951ft 320kts
22-Aug-20 14:20 38.543042 -107.790767 190 14724ft 330kts
22-Aug-20 14:21 38.453542 -107.793318 178 13073ft 313kts
22-Aug-20 14:22 38.366549 -107.792764 178 10912ft 303kts
22-Aug-20 14:23 38.316901 -107.850903 290 9021ft 277kts
22-Aug-20 14:24 38.372699 -107.889447 354 8723ft 206kts
22-Aug-20 14:25 38.427898 -107.892707 358 7552ft 180kts
22-Aug-20 14:26 38.471281 -107.892263 356 6418ft 142kts
22-Aug-20 14:27 38.509701 -107.892689 359 5767ft 120kts
22-Aug-20 14:28 38.524337 -107.893175 285 5767ft 13kts
22-Aug-20 14:29 38.521380 -107.893920 179 5767ft 12kts
22-Aug-20 14:30 38.517485 -107.893928 180 5767ft 15kts
22-Aug-20 14:31 38.512081 -107.893931 180 5767ft 19kts
22-Aug-20 14:32 38.507086 -107.893942 179 5767ft 17kts
22-Aug-20 14:33 38.502486 -107.894068 213 5767ft 16kts
22-Aug-20 14:34 38.500340 -107.897117 220 5767ft 1kts
22-Aug-20 14:35 38.497742 -107.894586 139 5767ft 15kts
22-Aug-20 14:36 38.494190 -107.890622 139 5767ft 19kts
22-Aug-20 14:37 38.492708 -107.889613 227 5767ft 0kts
22-Aug-20 14:38 38.492708 -107.889613 227 5767ft 0kts
22-Aug-20 14:39 38.492708 -107.889613 227 5767ft 0kts

Navigation Log

Ident Type
Flight plan parsing failed, navigation log unavailable